createdAt,value
2023-05-14T00:01:56.649Z,19.50
2023-05-14T00:04:24.149Z,20.20
2023-05-14T00:06:51.431Z,20.48
2023-05-14T00:09:19.738Z,17.42
2023-05-14T00:11:46.996Z,21.20
2023-05-14T00:14:14.218Z,19.58
2023-05-14T00:16:41.376Z,21.75
2023-05-14T00:19:08.360Z,19.42
2023-05-14T00:21:35.277Z,21.40
2023-05-14T00:24:02.527Z,21.63
2023-05-14T00:26:29.774Z,22.33
2023-05-14T00:28:56.609Z,18.15
2023-05-14T00:31:23.838Z,21.83
2023-05-14T00:33:51.081Z,22.30
2023-05-14T00:36:18.289Z,22.27
2023-05-14T00:38:45.650Z,24.15
2023-05-14T00:41:12.549Z,18.95
2023-05-14T00:43:39.544Z,20.40
2023-05-14T00:46:06.435Z,21.25
2023-05-14T00:48:34.285Z,19.67
2023-05-14T00:51:01.562Z,20.35
2023-05-14T00:53:28.830Z,22.08
2023-05-14T00:55:56.169Z,28.65
2023-05-14T00:58:23.485Z,21.52
2023-05-14T01:00:50.402Z,18.03
2023-05-14T01:03:17.424Z,17.95
2023-05-14T01:05:44.855Z,19.45
2023-05-14T01:08:41.004Z,22.58
2023-05-14T01:11:17.372Z,19.00
2023-05-14T01:14:08.935Z,19.13
2023-05-14T01:16:37.374Z,22.30
2023-05-14T01:19:07.805Z,18.83
2023-05-14T01:21:38.609Z,19.30
2023-05-14T01:24:06.033Z,21.20
2023-05-14T01:26:33.859Z,25.67
2023-05-14T01:29:15.864Z,21.75
2023-05-14T01:31:45.504Z,19.25
2023-05-14T01:34:14.012Z,26.67
2023-05-14T01:36:42.103Z,18.10
2023-05-14T01:39:10.531Z,24.37
2023-05-14T01:41:39.465Z,21.63
2023-05-14T01:44:06.818Z,21.85
2023-05-14T01:46:34.046Z,21.40
2023-05-14T01:49:01.598Z,24.65
2023-05-14T01:51:28.714Z,24.67
2023-05-14T01:53:55.935Z,22.98
2023-05-14T01:56:25.746Z,20.38
2023-05-14T01:58:52.874Z,24.30
2023-05-14T02:01:20.213Z,25.23
2023-05-14T02:03:48.132Z,20.17
2023-05-14T02:06:15.334Z,20.95
2023-05-14T02:08:42.550Z,24.08
2023-05-14T02:11:09.746Z,23.20
2023-05-14T02:13:36.694Z,23.73
2023-05-14T02:16:04.075Z,22.23
2023-05-14T02:18:31.592Z,21.55
2023-05-14T02:20:58.510Z,25.13
2023-05-14T02:23:34.185Z,22.05
2023-05-14T02:26:09.566Z,25.08
2023-05-14T02:28:36.422Z,21.20
2023-05-14T02:31:03.802Z,25.88
2023-05-14T02:33:30.849Z,19.70
2023-05-14T02:35:58.140Z,24.65
2023-05-14T02:38:26.515Z,23.45
2023-05-14T02:40:53.498Z,26.83
2023-05-14T02:43:20.810Z,25.50
2023-05-14T02:45:48.064Z,21.08
2023-05-14T02:48:15.260Z,21.27
2023-05-14T02:50:42.497Z,20.55
2023-05-14T02:53:09.754Z,28.53
2023-05-14T02:55:37.408Z,23.95
2023-05-14T02:58:04.811Z,24.45
2023-05-14T03:00:32.153Z,23.90
2023-05-14T03:02:59.447Z,23.02
2023-05-14T03:05:27.284Z,21.20
2023-05-14T03:07:54.800Z,25.00
2023-05-14T03:10:22.017Z,22.88
2023-05-14T03:12:49.446Z,22.25
2023-05-14T03:15:16.637Z,27.83
2023-05-14T03:17:43.925Z,22.00
2023-05-14T03:20:12.273Z,24.25
2023-05-14T03:22:39.474Z,25.38
2023-05-14T03:25:06.608Z,26.90
2023-05-14T03:27:34.592Z,28.45
2023-05-14T03:30:01.454Z,26.87
2023-05-14T03:32:28.414Z,22.75
2023-05-14T03:34:55.766Z,23.55
2023-05-14T03:37:22.809Z,22.15
2023-05-14T03:39:50.024Z,28.27
2023-05-14T03:42:16.868Z,24.73
2023-05-14T03:44:44.199Z,24.17
2023-05-14T03:47:11.726Z,24.48
2023-05-14T03:49:38.988Z,27.73
2023-05-14T03:52:07.798Z,23.92
2023-05-14T03:54:35.795Z,23.73
2023-05-14T03:57:03.061Z,22.20
2023-05-14T03:59:30.512Z,31.52
2023-05-14T04:01:57.319Z,24.83
2023-05-14T04:04:26.346Z,24.02
2023-05-14T04:06:53.706Z,26.53
2023-05-14T04:09:20.953Z,21.35
2023-05-14T04:11:48.154Z,25.60
2023-05-14T04:14:15.055Z,21.55
2023-05-14T04:16:45.715Z,26.08
2023-05-14T04:19:13.090Z,24.00
2023-05-14T04:21:40.485Z,26.17
2023-05-14T04:24:07.688Z,21.67
2023-05-14T04:26:35.349Z,23.08
2023-05-14T04:29:03.421Z,28.35
2023-05-14T04:31:31.609Z,22.87
2023-05-14T04:33:58.604Z,33.08
2023-05-14T04:36:25.866Z,25.60
2023-05-14T04:38:52.709Z,20.33
2023-05-14T04:41:19.946Z,25.98
2023-05-14T04:43:49.646Z,26.20
2023-05-14T04:46:16.616Z,22.73
2023-05-14T04:48:43.978Z,22.00
2023-05-14T04:51:11.197Z,26.42
2023-05-14T04:53:38.389Z,23.58
2023-05-14T04:56:05.650Z,24.23
2023-05-14T04:58:34.636Z,23.08
2023-05-14T05:01:02.810Z,20.48
2023-05-14T05:03:30.145Z,22.55
2023-05-14T05:05:57.069Z,26.88
2023-05-14T05:08:24.214Z,25.27
2023-05-14T05:10:51.505Z,20.88
2023-05-14T05:13:18.774Z,19.98
2023-05-14T05:15:46.083Z,20.83
2023-05-14T05:18:13.158Z,21.58
2023-05-14T05:20:40.446Z,27.33
2023-05-14T05:23:07.725Z,23.42
2023-05-14T05:25:34.949Z,17.90
2023-05-14T05:28:02.224Z,19.77
2023-05-14T05:30:30.187Z,24.40
2023-05-14T05:32:57.688Z,16.33
2023-05-14T05:35:24.653Z,17.80
2023-05-14T05:37:51.834Z,24.17
2023-05-14T05:40:19.108Z,18.23
2023-05-14T05:42:45.970Z,19.33
2023-05-14T05:45:13.246Z,16.13
2023-05-14T05:47:40.125Z,19.17
2023-05-14T05:50:07.695Z,18.00
2023-05-14T05:52:34.969Z,18.95
2023-05-14T05:55:02.224Z,21.55
2023-05-14T05:57:29.783Z,18.40
2023-05-14T05:59:56.609Z,19.10
2023-05-14T06:02:25.029Z,19.27
2023-05-14T06:04:53.217Z,15.70
2023-05-14T06:07:20.478Z,14.77
2023-05-14T06:09:47.762Z,19.83
2023-05-14T06:12:15.014Z,19.95
2023-05-14T06:14:42.234Z,18.17
2023-05-14T06:17:09.466Z,16.08
2023-05-14T06:19:36.783Z,18.63
2023-05-14T06:22:04.093Z,15.77
2023-05-14T06:24:30.994Z,16.13
2023-05-14T06:26:57.924Z,17.95
2023-05-14T06:29:25.662Z,16.23
2023-05-14T06:31:53.809Z,14.80
2023-05-14T06:34:21.126Z,15.10
2023-05-14T06:36:48.417Z,17.48
2023-05-14T06:39:15.617Z,14.57
2023-05-14T06:41:42.553Z,13.60
2023-05-14T06:44:14.905Z,17.20
2023-05-14T06:46:42.121Z,16.13
2023-05-14T06:49:09.404Z,13.23
2023-05-14T06:51:36.807Z,15.85
2023-05-14T06:54:03.802Z,16.38
2023-05-14T06:56:30.660Z,13.88
2023-05-14T06:58:57.478Z,12.83
2023-05-14T07:01:24.745Z,15.05
2023-05-14T07:03:52.055Z,19.02
2023-05-14T07:06:19.395Z,15.07
2023-05-14T07:08:46.293Z,15.13
2023-05-14T07:11:13.654Z,14.23
2023-05-14T07:13:41.102Z,14.80
2023-05-14T07:16:11.528Z,12.45
2023-05-14T07:18:38.879Z,17.40
2023-05-14T07:21:06.630Z,13.65
2023-05-14T07:23:36.227Z,11.13
2023-05-14T07:26:05.067Z,13.30
2023-05-14T07:28:32.518Z,16.15
2023-05-14T07:30:59.643Z,16.60
2023-05-14T07:33:27.081Z,13.23
2023-05-14T07:35:54.387Z,22.47
2023-05-14T07:38:21.332Z,14.50
2023-05-14T07:40:48.559Z,16.60
2023-05-14T07:43:15.862Z,16.90
2023-05-14T07:45:42.908Z,18.38
2023-05-14T07:48:10.196Z,18.33
2023-05-14T07:50:37.980Z,17.17
2023-05-14T07:53:04.966Z,18.58
2023-05-14T07:55:31.869Z,17.00
2023-05-14T07:57:59.199Z,16.25
2023-05-14T08:00:26.632Z,14.43
2023-05-14T08:02:55.035Z,13.95
2023-05-14T08:05:22.449Z,15.65
2023-05-14T08:07:49.672Z,14.73
2023-05-14T08:10:16.906Z,15.18
2023-05-14T08:12:44.284Z,13.33
2023-05-14T08:15:11.303Z,16.25
2023-05-14T08:17:38.666Z,13.32
2023-05-14T08:20:06.926Z,12.43
2023-05-14T08:22:34.183Z,14.23
2023-05-14T08:25:03.465Z,17.60
2023-05-14T08:27:30.707Z,12.23
2023-05-14T08:29:57.889Z,14.25
2023-05-14T08:32:24.766Z,17.10
2023-05-14T08:34:52.314Z,14.45
2023-05-14T08:37:19.823Z,14.07
2023-05-14T08:39:47.108Z,14.48
2023-05-14T08:42:15.620Z,17.70
2023-05-14T08:44:50.066Z,11.75
2023-05-14T08:47:21.404Z,15.55
2023-05-14T08:49:58.072Z,12.10
2023-05-14T08:52:25.578Z,12.10
2023-05-14T08:54:53.987Z,12.18
2023-05-14T08:57:24.871Z,12.60
2023-05-14T08:59:52.415Z,14.80
2023-05-14T09:02:24.350Z,12.53
2023-05-14T09:04:59.457Z,11.32
2023-05-14T09:07:27.030Z,14.65
2023-05-14T09:09:54.641Z,13.27
2023-05-14T09:12:22.223Z,11.07
2023-05-14T09:14:50.570Z,10.60
2023-05-14T09:17:18.716Z,16.20
2023-05-14T09:19:49.599Z,10.88
2023-05-14T09:22:18.176Z,18.23
2023-05-14T09:24:45.758Z,16.98
2023-05-14T09:27:21.898Z,13.93
2023-05-14T09:29:48.703Z,11.65
2023-05-14T09:32:15.682Z,13.90
2023-05-14T09:34:42.470Z,8.98
2023-05-14T09:37:09.999Z,8.23
2023-05-14T09:39:38.176Z,11.03
2023-05-14T09:42:05.495Z,12.60
2023-05-14T09:44:32.485Z,13.80
2023-05-14T09:46:59.474Z,13.45
2023-05-14T09:49:26.378Z,12.55
2023-05-14T09:51:53.620Z,10.60
2023-05-14T09:54:20.458Z,12.75
2023-05-14T09:56:47.293Z,10.82
2023-05-14T09:59:14.373Z,10.98
2023-05-14T10:01:43.994Z,13.93
2023-05-14T10:04:12.057Z,14.73
2023-05-14T10:06:39.897Z,11.73
2023-05-14T10:09:19.772Z,13.82
2023-05-14T10:11:52.718Z,12.35
2023-05-14T10:14:29.310Z,9.35
2023-05-14T10:17:00.925Z,10.03
2023-05-14T10:19:32.291Z,13.20
2023-05-14T10:22:07.532Z,11.13
2023-05-14T10:24:35.500Z,10.88
2023-05-14T10:27:02.748Z,13.80
2023-05-14T10:29:37.687Z,11.67
2023-05-14T10:32:06.914Z,13.15
2023-05-14T10:34:42.471Z,10.80
2023-05-14T10:37:15.940Z,10.23
2023-05-14T10:39:54.078Z,14.13
2023-05-14T10:42:29.029Z,11.13
2023-05-14T10:45:02.054Z,15.95
2023-05-14T10:47:29.594Z,13.57
2023-05-14T10:49:58.589Z,16.33
2023-05-14T10:52:26.454Z,11.02
2023-05-14T10:55:03.097Z,9.63
2023-05-14T10:57:33.548Z,12.43
2023-05-14T11:00:01.313Z,12.27
2023-05-14T11:02:34.358Z,13.05
2023-05-14T11:05:05.856Z,12.65
2023-05-14T11:07:35.292Z,17.40
2023-05-14T11:10:13.592Z,14.30
2023-05-14T11:12:44.051Z,10.88
2023-05-14T11:15:13.321Z,14.10
2023-05-14T11:17:42.107Z,9.68
2023-05-14T11:20:09.636Z,11.50
2023-05-14T11:22:38.219Z,17.90
2023-05-14T11:25:06.271Z,10.65
2023-05-14T11:27:39.179Z,10.50
2023-05-14T11:30:16.312Z,11.43
2023-05-14T11:32:46.068Z,13.13
2023-05-14T11:35:13.874Z,14.40
2023-05-14T11:37:40.857Z,11.20
2023-05-14T11:40:10.254Z,13.25
2023-05-14T11:42:38.654Z,11.55
2023-05-14T11:45:06.315Z,9.03
2023-05-14T11:47:33.353Z,10.05
2023-05-14T11:50:01.084Z,11.00
2023-05-14T11:52:27.983Z,15.88
2023-05-14T11:54:54.902Z,10.13
2023-05-14T11:57:22.870Z,14.73
2023-05-14T11:59:57.958Z,14.05
2023-05-14T12:02:29.070Z,13.02
2023-05-14T12:04:56.076Z,11.75
2023-05-14T12:07:22.938Z,9.73
2023-05-14T12:09:50.564Z,10.30
2023-05-14T12:12:22.080Z,14.07
2023-05-14T12:14:50.634Z,10.25
2023-05-14T12:17:22.492Z,15.75
2023-05-14T12:19:52.694Z,11.43
2023-05-14T12:22:22.058Z,10.37
2023-05-14T12:24:59.959Z,10.63
2023-05-14T12:27:29.550Z,12.52
2023-05-14T12:32:44.906Z,9.70
2023-05-14T12:35:11.918Z,9.50
2023-05-14T12:37:39.964Z,9.68
2023-05-14T12:40:10.219Z,11.30
2023-05-14T12:42:37.451Z,9.85
2023-05-14T12:45:07.771Z,14.90
2023-05-14T12:47:34.873Z,11.10
2023-05-14T12:50:02.129Z,10.70
2023-05-14T12:52:37.774Z,10.02
2023-05-14T12:55:07.129Z,8.93
2023-05-14T12:57:35.390Z,9.85
2023-05-14T13:00:06.613Z,14.87
2023-05-14T13:02:34.347Z,13.77
2023-05-14T13:05:11.102Z,10.60
2023-05-14T13:07:38.307Z,12.63
2023-05-14T13:10:05.860Z,9.65
2023-05-14T13:12:33.041Z,9.67
2023-05-14T13:14:59.987Z,12.48
2023-05-14T13:17:27.052Z,12.27
2023-05-14T13:19:53.899Z,10.32
2023-05-14T13:22:20.979Z,16.65
2023-05-14T13:24:47.903Z,10.37
2023-05-14T13:27:14.692Z,9.55
2023-05-14T13:29:41.640Z,10.95
2023-05-14T13:32:08.888Z,10.13
2023-05-14T13:34:36.272Z,12.45
2023-05-14T13:37:04.004Z,8.07
2023-05-14T13:39:30.970Z,13.43
2023-05-14T13:41:57.892Z,11.85
2023-05-14T13:44:24.839Z,14.18
2023-05-14T13:46:51.837Z,13.35
2023-05-14T13:49:18.798Z,8.77
2023-05-14T13:51:45.742Z,8.73
2023-05-14T13:54:12.605Z,11.63
2023-05-14T13:56:39.486Z,10.98
2023-05-14T13:59:06.439Z,10.18
2023-05-14T14:01:33.456Z,11.57
2023-05-14T14:04:00.411Z,13.38
2023-05-14T14:06:27.532Z,9.00
2023-05-14T14:08:54.525Z,10.90
2023-05-14T14:11:21.987Z,11.85
2023-05-14T14:13:48.985Z,10.13
2023-05-14T14:16:16.275Z,8.10
2023-05-14T14:18:43.609Z,10.15
2023-05-14T14:21:10.898Z,11.77
2023-05-14T14:23:37.832Z,12.32
2023-05-14T14:26:04.732Z,12.20
2023-05-14T14:28:31.658Z,9.85
2023-05-14T14:30:58.602Z,14.75
2023-05-14T14:33:25.765Z,10.05
2023-05-14T14:35:52.927Z,11.90
2023-05-14T14:38:20.138Z,8.07
2023-05-14T14:40:46.969Z,9.43
2023-05-14T14:43:13.900Z,13.35
2023-05-14T14:45:40.845Z,12.15
2023-05-14T14:48:26.367Z,10.85
2023-05-14T14:50:54.574Z,9.03
2023-05-14T14:53:22.625Z,8.95
2023-05-14T14:55:50.378Z,9.85
2023-05-14T14:58:18.882Z,13.48
2023-05-14T15:00:45.972Z,10.13
2023-05-14T15:03:15.008Z,14.03
2023-05-14T15:05:42.435Z,14.10
2023-05-14T15:08:09.595Z,12.00
2023-05-14T15:10:38.175Z,12.57
2023-05-14T15:13:06.261Z,8.48
2023-05-14T15:15:34.495Z,17.77
2023-05-14T15:18:02.042Z,10.35
2023-05-14T15:20:29.047Z,9.32
2023-05-14T15:22:56.570Z,9.18
2023-05-14T15:25:24.768Z,11.25
2023-05-14T15:27:51.990Z,15.13
2023-05-14T15:30:19.104Z,14.38
2023-05-14T15:32:46.734Z,9.07
2023-05-14T15:35:13.937Z,10.77
2023-05-14T15:37:42.839Z,13.85
2023-05-14T15:40:10.449Z,12.53
2023-05-14T15:42:38.832Z,9.25
2023-05-14T15:45:06.132Z,10.25
2023-05-14T15:47:33.544Z,15.07
2023-05-14T15:50:01.138Z,11.18
2023-05-14T15:52:28.392Z,10.37
2023-05-14T15:54:57.354Z,12.23
2023-05-14T15:57:24.167Z,10.73
2023-05-14T15:59:51.574Z,11.77
2023-05-14T16:02:18.498Z,11.68
2023-05-14T16:04:45.482Z,12.67
2023-05-14T16:07:13.313Z,13.75
2023-05-14T16:09:40.333Z,15.07
2023-05-14T16:12:08.217Z,11.90
2023-05-14T16:14:35.597Z,14.55
2023-05-14T16:17:02.502Z,7.97
2023-05-14T16:19:29.423Z,10.07
2023-05-14T16:21:56.212Z,14.25
2023-05-14T16:24:23.109Z,11.35
2023-05-14T16:26:49.965Z,9.48
2023-05-14T16:29:16.830Z,14.40
2023-05-14T16:31:43.911Z,9.48
2023-05-14T16:34:10.752Z,11.38
2023-05-14T16:36:38.022Z,15.80
2023-05-14T16:39:07.716Z,11.75
2023-05-14T16:41:35.884Z,9.43
2023-05-14T16:44:03.450Z,9.00
2023-05-14T16:46:31.263Z,26.67
2023-05-14T16:48:58.251Z,24.15
2023-05-14T16:51:25.626Z,27.90
2023-05-14T16:53:54.678Z,22.27
2023-05-14T16:56:22.666Z,18.85
2023-05-14T16:58:49.857Z,13.55
2023-05-14T17:01:16.936Z,15.70
2023-05-14T17:03:45.576Z,10.15
2023-05-14T17:06:12.474Z,13.17
2023-05-14T17:08:39.376Z,12.93
2023-05-14T17:11:06.574Z,10.50
2023-05-14T17:13:34.053Z,10.60
2023-05-14T17:16:01.789Z,16.05
2023-05-14T17:18:28.839Z,13.03
2023-05-14T17:20:56.076Z,15.85
2023-05-14T17:23:22.999Z,12.52
2023-05-14T17:25:50.091Z,12.55
2023-05-14T17:28:16.962Z,13.30
2023-05-14T17:30:43.904Z,16.10
2023-05-14T17:33:11.515Z,12.57
2023-05-14T17:35:38.948Z,19.15
2023-05-14T17:38:05.999Z,14.02
2023-05-14T17:40:34.151Z,13.88
2023-05-14T17:43:01.424Z,14.57
2023-05-14T17:45:32.193Z,18.02
2023-05-14T17:48:04.016Z,19.75
2023-05-14T17:50:31.336Z,12.48
2023-05-14T17:52:58.624Z,14.18
2023-05-14T17:55:25.920Z,11.10
2023-05-14T17:57:53.640Z,14.48
2023-05-14T18:00:20.953Z,13.80
2023-05-14T18:02:47.926Z,18.92
2023-05-14T18:05:15.402Z,17.05
2023-05-14T18:07:42.816Z,15.67
2023-05-14T18:10:10.144Z,16.83
2023-05-14T18:12:37.541Z,13.35
2023-05-14T18:15:04.908Z,21.08
2023-05-14T18:17:32.198Z,12.65
2023-05-14T18:20:00.178Z,16.37
2023-05-14T18:22:27.452Z,15.57
2023-05-14T18:24:54.706Z,16.33
2023-05-14T18:27:21.934Z,19.88
2023-05-14T18:29:48.878Z,15.95
2023-05-14T18:32:16.521Z,17.43
2023-05-14T18:34:43.759Z,14.90
2023-05-14T18:37:11.056Z,15.88
2023-05-14T18:39:38.285Z,12.52
2023-05-14T18:42:05.710Z,16.90
2023-05-14T18:44:32.932Z,16.50
2023-05-14T18:47:00.375Z,19.02
2023-05-14T18:49:27.701Z,20.65
2023-05-14T18:51:55.010Z,26.40
2023-05-14T18:54:22.089Z,18.02
2023-05-14T18:56:49.335Z,17.67
2023-05-14T18:59:16.656Z,20.88
2023-05-14T19:01:44.013Z,17.10
2023-05-14T19:04:11.458Z,22.13
2023-05-14T19:06:40.667Z,16.25
2023-05-14T19:09:07.978Z,18.90
2023-05-14T19:11:35.247Z,17.08
2023-05-14T19:14:02.135Z,19.80
2023-05-14T19:16:29.754Z,13.85
2023-05-14T19:18:57.202Z,20.55
2023-05-14T19:21:24.406Z,13.93
2023-05-14T19:23:51.641Z,15.02
2023-05-14T19:26:18.866Z,19.70
2023-05-14T19:28:46.102Z,14.70
2023-05-14T19:31:13.389Z,16.00
2023-05-14T19:33:40.321Z,15.77
2023-05-14T19:36:07.640Z,16.85
2023-05-14T19:38:34.576Z,14.35
2023-05-14T19:41:01.835Z,14.32
2023-05-14T19:43:29.241Z,15.60
2023-05-14T19:45:56.514Z,16.43
2023-05-14T19:48:23.793Z,17.63
2023-05-14T19:50:51.905Z,17.02
2023-05-14T19:53:19.112Z,17.70
2023-05-14T19:55:46.380Z,16.08
2023-05-14T19:58:13.967Z,16.63
2023-05-14T20:00:40.986Z,15.68
2023-05-14T20:03:08.314Z,17.95
2023-05-14T20:05:36.195Z,14.85
2023-05-14T20:08:06.523Z,17.40
2023-05-14T20:10:33.862Z,18.40
2023-05-14T20:13:01.102Z,20.55
2023-05-14T20:15:27.917Z,16.00
2023-05-14T20:17:54.926Z,16.98
2023-05-14T20:20:22.295Z,15.15
2023-05-14T20:22:49.629Z,14.13
2023-05-14T20:25:16.867Z,17.77
2023-05-14T20:27:44.169Z,15.85
2023-05-14T20:30:11.405Z,17.75
2023-05-14T20:32:38.723Z,18.50
2023-05-14T20:35:06.367Z,21.07
2023-05-14T20:37:33.956Z,18.63
2023-05-14T20:40:02.236Z,19.20
2023-05-14T20:42:29.176Z,23.05
2023-05-14T20:44:56.458Z,15.23
2023-05-14T20:47:26.551Z,20.43
2023-05-14T20:49:53.949Z,14.13
2023-05-14T20:52:21.371Z,16.10
2023-05-14T20:54:49.125Z,17.30
2023-05-14T20:57:16.457Z,17.70
2023-05-14T20:59:43.982Z,15.23
2023-05-14T21:02:10.985Z,18.70
2023-05-14T21:04:38.313Z,17.38
2023-05-14T21:07:06.125Z,18.20
2023-05-14T21:09:33.582Z,18.30
2023-05-14T21:12:00.922Z,15.23
2023-05-14T21:14:28.200Z,14.40
2023-05-14T21:16:55.120Z,19.35
2023-05-14T21:19:23.325Z,17.33
2023-05-14T21:21:50.643Z,16.58
2023-05-14T21:24:18.951Z,17.23
2023-05-14T21:26:46.325Z,18.55
2023-05-14T21:29:13.577Z,15.32
2023-05-14T21:31:41.070Z,17.20
2023-05-14T21:34:08.346Z,12.82
2023-05-14T21:36:35.269Z,14.33
2023-05-14T21:39:02.107Z,17.38
2023-05-14T21:41:29.385Z,14.90
2023-05-14T21:43:56.183Z,16.83
2023-05-14T21:46:23.494Z,14.45
2023-05-14T21:48:51.101Z,18.37
2023-05-14T21:51:18.054Z,17.33
2023-05-14T21:53:46.193Z,16.23
2023-05-14T21:56:13.416Z,13.02
2023-05-14T21:58:41.484Z,15.73
2023-05-14T22:01:09.052Z,15.17
2023-05-14T22:03:36.422Z,17.75
2023-05-14T22:06:03.519Z,20.65
2023-05-14T22:08:31.080Z,16.13
2023-05-14T22:10:57.968Z,17.58
2023-05-14T22:13:25.306Z,13.33
2023-05-14T22:16:01.431Z,14.35
2023-05-14T22:18:36.650Z,23.40
2023-05-14T22:21:04.083Z,21.38
2023-05-14T22:23:30.941Z,13.90
2023-05-14T22:25:57.879Z,18.43
2023-05-14T22:28:25.166Z,19.98
2023-05-14T22:30:52.447Z,16.00
2023-05-14T22:33:19.742Z,15.43
2023-05-14T22:35:47.170Z,17.15
2023-05-14T22:38:14.163Z,19.60
2023-05-14T22:40:41.434Z,19.83
2023-05-14T22:43:08.680Z,26.83
2023-05-14T22:45:35.514Z,23.85
2023-05-14T22:48:02.907Z,17.30
2023-05-14T22:50:30.425Z,24.07
2023-05-14T22:52:57.268Z,17.40
2023-05-14T22:55:24.656Z,26.73
2023-05-14T22:57:52.221Z,19.05
2023-05-14T23:00:19.707Z,20.98
2023-05-14T23:02:47.077Z,25.73
2023-05-14T23:05:14.401Z,19.38
2023-05-14T23:07:41.333Z,23.92
2023-05-14T23:10:08.736Z,17.25
2023-05-14T23:12:35.960Z,20.70
2023-05-14T23:15:03.315Z,22.23
2023-05-14T23:17:30.241Z,20.55
2023-05-14T23:19:57.138Z,22.88
2023-05-14T23:22:24.345Z,23.23
2023-05-14T23:24:51.176Z,24.92
2023-05-14T23:27:18.422Z,30.37
2023-05-14T23:29:45.600Z,20.98
2023-05-14T23:32:12.988Z,21.23
2023-05-14T23:34:40.224Z,21.05
2023-05-14T23:37:07.680Z,23.40
2023-05-14T23:39:34.997Z,21.57
2023-05-14T23:42:02.218Z,21.83
2023-05-14T23:44:29.017Z,22.25
2023-05-14T23:46:56.370Z,20.50
2023-05-14T23:49:23.580Z,20.70
2023-05-14T23:51:50.913Z,24.57
2023-05-14T23:54:17.704Z,23.08
2023-05-14T23:56:45.018Z,25.63
2023-05-14T23:59:12.399Z,26.63
